Time;durP1;ratioP1;P1;durP2;ratioP2;P2;SDS_P1;SDS_P2;PMS_P1;PMS_P2;Temp;Humidity;BMP_temperature;BMP_pressure;BME280_temperature;BME280_humidity;BME280_pressure;Samples;Min_cycle;Max_cycle;Signal;HPM_P1;HPM_P2
2021/03/03 00:01:59;;;;;;;19.17;15.10;;;11.20;55.70;;;;;;5089752;28;20724;-53
2021/03/03 00:04:26;;;;;;;17.97;14.57;;;11.10;55.40;;;;;;5090428;28;20648;-52
2021/03/03 00:06:53;;;;;;;17.83;14.70;;;11.20;55.30;;;;;;5088403;28;20621;-53
2021/03/03 00:09:20;;;;;;;17.37;14.03;;;11.10;55.60;;;;;;5088696;28;20670;-53
2021/03/03 00:11:47;;;;;;;19.87;14.00;;;11.10;57.50;;;;;;5089684;28;21032;-52
2021/03/03 00:14:14;;;;;;;18.63;13.70;;;11.10;57.10;;;;;;5081717;28;20709;-52
2021/03/03 00:16:41;;;;;;;27.60;16.87;;;11.00;56.80;;;;;;5090609;28;20636;-52
2021/03/03 00:19:08;;;;;;;20.43;17.67;;;11.00;56.60;;;;;;5089168;28;20648;-52
2021/03/03 00:21:34;;;;;;;18.67;15.43;;;11.00;56.40;;;;;;5089716;28;20678;-53
2021/03/03 00:24:01;;;;;;;19.13;16.60;;;11.00;56.30;;;;;;5086230;28;20659;-53
2021/03/03 00:26:28;;;;;;;18.60;15.97;;;11.10;56.30;;;;;;5088809;28;20761;-54
2021/03/03 00:28:55;;;;;;;17.50;14.27;;;11.10;56.20;;;;;;5083814;28;20818;-51
2021/03/03 00:31:22;;;;;;;19.27;16.10;;;11.00;56.40;;;;;;5075365;28;20689;-52
2021/03/03 00:33:49;;;;;;;19.10;15.60;;;11.00;56.60;;;;;;5075243;28;20681;-52
2021/03/03 00:36:16;;;;;;;19.50;16.73;;;11.00;56.50;;;;;;5069085;28;20766;-52
2021/03/03 00:38:42;;;;;;;23.47;16.47;;;11.00;56.30;;;;;;5070190;28;20804;-52
2021/03/03 00:41:09;;;;;;;19.97;15.23;;;11.00;56.20;;;;;;5089544;28;20624;-52
2021/03/03 00:43:37;;;;;;;19.67;15.87;;;10.90;56.30;;;;;;5084898;28;20653;-52
2021/03/03 00:46:03;;;;;;;17.93;14.93;;;10.90;56.50;;;;;;5089689;28;20619;-52
2021/03/03 00:48:30;;;;;;;19.47;15.83;;;10.80;56.60;;;;;;5089578;28;20703;-51
2021/03/03 00:50:57;;;;;;;19.27;16.13;;;10.80;56.80;;;;;;5089696;28;20669;-51
2021/03/03 00:53:24;;;;;;;18.00;14.77;;;10.70;57.00;;;;;;5089822;28;20652;-52
2021/03/03 00:55:50;;;;;;;21.73;13.97;;;10.70;57.40;;;;;;5089956;28;20627;-52
2021/03/03 00:58:17;;;;;;;19.37;15.73;;;10.70;57.70;;;;;;5077919;28;20694;-51
2021/03/03 01:00:45;;;;;;;17.40;15.30;;;10.70;57.80;;;;;;5073150;28;21210;-52
2021/03/03 01:03:11;;;;;;;20.90;16.07;;;10.60;57.90;;;;;;5089615;28;21265;-51
2021/03/03 01:05:40;;;;;;;22.53;16.80;;;10.50;58.10;;;;;;5088780;28;20629;-52
2021/03/03 01:08:07;;;;;;;19.50;16.03;;;10.50;58.40;;;;;;5081391;28;21353;-52
2021/03/03 01:10:33;;;;;;;22.67;16.43;;;10.40;58.90;;;;;;5087328;28;20671;-51
2021/03/03 01:13:00;;;;;;;17.50;15.47;;;10.40;59.20;;;;;;5069735;28;20656;-52
2021/03/03 01:15:27;;;;;;;24.73;15.97;;;10.40;59.20;;;;;;5081699;28;20690;-51
2021/03/03 01:17:59;;;;;;;17.93;13.60;;;10.30;59.30;;;;;;5085113;28;20620;-51
2021/03/03 01:20:27;;;;;;;16.47;14.00;;;10.30;59.30;;;;;;5089254;28;20616;-51
2021/03/03 01:22:53;;;;;;;16.57;13.90;;;10.30;59.30;;;;;;5086606;28;20701;-51
2021/03/03 01:25:20;;;;;;;17.90;14.30;;;10.30;59.40;;;;;;5088898;28;20680;-51
2021/03/03 01:27:47;;;;;;;19.00;14.97;;;10.30;59.40;;;;;;5088990;28;20666;-52
2021/03/03 01:30:14;;;;;;;16.40;13.60;;;10.30;59.10;;;;;;5090150;28;20656;-52
2021/03/03 01:32:41;;;;;;;20.10;14.50;;;10.30;59.00;;;;;;5089170;28;20656;-51
2021/03/03 01:35:10;;;;;;;16.33;13.67;;;10.30;58.90;;;;;;5089649;28;20707;-52
2021/03/03 01:37:37;;;;;;;18.10;15.20;;;10.20;59.00;;;;;;5088119;28;20661;-52
2021/03/03 01:40:04;;;;;;;19.37;15.03;;;10.30;59.60;;;;;;5089553;28;20628;-52
2021/03/03 01:42:31;;;;;;;19.27;14.17;;;10.30;59.20;;;;;;5089049;28;20631;-52
2021/03/03 01:44:58;;;;;;;21.93;15.60;;;10.30;59.20;;;;;;5092853;28;20692;-52
2021/03/03 01:47:24;;;;;;;19.37;15.50;;;10.20;59.20;;;;;;5092797;28;20793;-51
2021/03/03 01:49:51;;;;;;;18.83;14.97;;;10.20;59.30;;;;;;5093326;28;20686;-51
2021/03/03 01:52:18;;;;;;;16.47;13.30;;;10.10;59.30;;;;;;5094007;28;20700;-52
2021/03/03 01:54:45;;;;;;;19.70;16.23;;;10.10;59.80;;;;;;5092914;28;21007;-52
2021/03/03 01:57:12;;;;;;;19.43;14.30;;;10.10;60.00;;;;;;5093213;28;20676;-52
2021/03/03 01:59:39;;;;;;;19.07;15.30;;;10.10;60.90;;;;;;5092916;28;20935;-52
2021/03/03 02:02:06;;;;;;;15.40;12.80;;;10.10;61.40;;;;;;5093684;28;20635;-53
2021/03/03 02:04:32;;;;;;;16.70;13.80;;;10.00;61.20;;;;;;5092893;28;20659;-52
2021/03/03 02:07:03;;;;;;;17.30;14.30;;;10.10;61.00;;;;;;5092925;28;20627;-52
2021/03/03 02:09:36;;;;;;;21.63;14.40;;;10.10;60.70;;;;;;5092592;28;20832;-52
2021/03/03 02:12:05;;;;;;;19.70;14.73;;;10.10;60.40;;;;;;5092112;28;20657;-52
2021/03/03 02:14:31;;;;;;;19.40;15.60;;;10.10;60.40;;;;;;5093236;28;21060;-53
2021/03/03 02:16:58;;;;;;;20.93;15.60;;;10.00;60.50;;;;;;5092650;28;20695;-51
2021/03/03 02:19:27;;;;;;;16.90;14.20;;;10.00;61.00;;;;;;5090470;28;20705;-52
2021/03/03 02:21:57;;;;;;;19.97;14.60;;;9.90;62.50;;;;;;5089124;28;20611;-52
2021/03/03 02:24:24;;;;;;;19.13;15.17;;;10.00;61.10;;;;;;5088215;28;20658;-53
2021/03/03 02:26:52;;;;;;;21.30;16.60;;;9.90;62.50;;;;;;5090762;28;20676;-52
2021/03/03 02:29:24;;;;;;;16.90;13.60;;;9.90;62.40;;;;;;5092369;28;20671;-53
2021/03/03 02:31:51;;;;;;;20.00;14.10;;;9.90;62.30;;;;;;5090892;28;20640;-53
2021/03/03 02:34:18;;;;;;;23.07;15.00;;;9.80;62.10;;;;;;5092849;28;20791;-53
2021/03/03 02:36:46;;;;;;;20.90;14.90;;;9.80;62.30;;;;;;5092693;28;21392;-53
2021/03/03 02:39:13;;;;;;;17.90;16.03;;;9.80;62.30;;;;;;5092140;28;20625;-52
2021/03/03 02:41:40;;;;;;;22.90;15.70;;;9.80;62.70;;;;;;5092367;28;20672;-52
2021/03/03 02:44:08;;;;;;;18.47;13.07;;;9.80;63.00;;;;;;5091794;28;20663;-53
2021/03/03 02:46:34;;;;;;;21.17;16.93;;;9.70;63.10;;;;;;5092772;28;20983;-53
2021/03/03 02:49:01;;;;;;;17.33;13.10;;;9.60;63.90;;;;;;5092077;28;20639;-53
2021/03/03 02:51:28;;;;;;;22.43;14.60;;;9.60;64.80;;;;;;5092382;28;21024;-52
2021/03/03 02:53:55;;;;;;;21.37;15.50;;;9.70;65.40;;;;;;5091744;28;20801;-52
2021/03/03 02:56:23;;;;;;;20.13;14.30;;;9.60;65.20;;;;;;5091875;28;21187;-52
2021/03/03 02:58:50;;;;;;;22.17;14.80;;;9.60;65.20;;;;;;5090985;28;20693;-53
2021/03/03 03:01:18;;;;;;;18.17;14.03;;;9.60;64.90;;;;;;5092125;28;20677;-53
2021/03/03 03:03:49;;;;;;;20.20;14.90;;;9.60;64.90;;;;;;5092178;28;20647;-52
2021/03/03 03:06:17;;;;;;;20.63;14.07;;;9.60;64.90;;;;;;5091761;28;20677;-52
2021/03/03 03:08:44;;;;;;;19.60;15.07;;;9.60;64.60;;;;;;5091444;28;20736;-52
2021/03/03 03:11:15;;;;;;;17.70;13.70;;;9.70;64.70;;;;;;5090859;28;20740;-52
2021/03/03 03:13:42;;;;;;;22.40;14.40;;;9.70;65.00;;;;;;5092093;28;20683;-52
2021/03/03 03:16:08;;;;;;;18.60;13.47;;;9.60;65.10;;;;;;5092246;28;21197;-52
2021/03/03 03:18:42;;;;;;;20.27;14.80;;;9.60;65.40;;;;;;5091066;28;20964;-52
2021/03/03 03:21:09;;;;;;;20.17;15.13;;;9.60;64.90;;;;;;5088933;28;20918;-51
2021/03/03 03:23:35;;;;;;;18.50;13.53;;;9.50;65.40;;;;;;5103471;28;20712;-53
2021/03/03 03:26:03;;;;;;;15.63;12.97;;;9.50;65.00;;;;;;5094243;28;20635;-54
2021/03/03 03:28:30;;;;;;;18.50;14.37;;;9.50;65.70;;;;;;5091174;28;20632;-53
2021/03/03 03:30:56;;;;;;;20.33;14.07;;;9.50;65.90;;;;;;5091495;28;21051;-51
2021/03/03 03:33:23;;;;;;;17.63;14.43;;;9.50;66.20;;;;;;5091261;28;20668;-52
2021/03/03 03:35:51;;;;;;;20.60;13.03;;;9.50;66.00;;;;;;5091032;28;20696;-52
2021/03/03 03:38:17;;;;;;;18.87;14.40;;;9.40;65.90;;;;;;5091385;28;20631;-52
2021/03/03 03:40:44;;;;;;;16.43;14.40;;;9.40;66.40;;;;;;5091344;28;20696;-54
2021/03/03 03:43:12;;;;;;;21.47;14.70;;;9.40;66.30;;;;;;5091802;28;20632;-53
2021/03/03 03:45:39;;;;;;;23.83;15.20;;;9.40;66.60;;;;;;5091094;28;20630;-51
2021/03/03 03:48:07;;;;;;;19.70;14.13;;;9.30;66.70;;;;;;5090676;28;20714;-51
2021/03/03 03:50:34;;;;;;;19.33;13.90;;;9.40;67.40;;;;;;5090399;28;20678;-51
2021/03/03 03:53:01;;;;;;;21.27;15.73;;;9.40;68.00;;;;;;5090959;28;21284;-51
2021/03/03 03:55:31;;;;;;;21.20;15.77;;;9.40;68.00;;;;;;5089782;28;20620;-51
2021/03/03 03:57:58;;;;;;;19.73;14.67;;;9.40;67.70;;;;;;5090153;28;21217;-51
2021/03/03 04:00:26;;;;;;;23.77;14.10;;;9.40;67.60;;;;;;5090743;28;20658;-52
2021/03/03 04:02:52;;;;;;;23.63;14.20;;;9.50;67.90;;;;;;5090622;28;20724;-51
2021/03/03 04:05:19;;;;;;;17.80;13.90;;;9.50;68.00;;;;;;5091332;28;20623;-52
2021/03/03 04:07:46;;;;;;;17.47;12.37;;;9.50;67.90;;;;;;5087722;28;20615;-52
2021/03/03 04:10:15;;;;;;;17.83;13.47;;;9.40;67.70;;;;;;5090328;28;20652;-52
2021/03/03 04:12:42;;;;;;;18.00;14.93;;;9.50;68.10;;;;;;5090667;28;20732;-53
2021/03/03 04:15:09;;;;;;;22.60;15.13;;;9.50;68.30;;;;;;5090980;28;20950;-51
2021/03/03 04:17:36;;;;;;;15.20;13.43;;;9.40;68.30;;;;;;5089145;28;20693;-51
2021/03/03 04:20:04;;;;;;;17.60;13.73;;;9.40;68.10;;;;;;5091162;28;20620;-51
2021/03/03 04:22:31;;;;;;;14.37;11.73;;;9.40;68.40;;;;;;5092724;28;20627;-51
2021/03/03 04:24:57;;;;;;;22.87;12.03;;;9.40;67.90;;;;;;5091181;28;21176;-51
2021/03/03 04:27:25;;;;;;;17.27;13.20;;;9.40;68.00;;;;;;5086258;28;20624;-51
2021/03/03 04:29:52;;;;;;;18.93;14.00;;;9.40;68.20;;;;;;5086467;28;20695;-52
2021/03/03 04:32:18;;;;;;;22.70;13.80;;;9.40;67.60;;;;;;5089353;28;20636;-51
2021/03/03 04:34:45;;;;;;;18.27;14.30;;;9.40;67.60;;;;;;5090581;28;20627;-52
2021/03/03 04:37:12;;;;;;;20.33;14.37;;;9.40;68.20;;;;;;5090044;28;20679;-52
2021/03/03 04:39:38;;;;;;;18.17;14.80;;;9.40;68.40;;;;;;5089705;28;20648;-51
2021/03/03 04:42:05;;;;;;;16.93;13.27;;;9.40;68.40;;;;;;5088971;28;20657;-52
2021/03/03 04:44:33;;;;;;;19.60;15.53;;;9.30;68.40;;;;;;5089611;28;20671;-51
2021/03/03 04:47:00;;;;;;;23.67;15.10;;;9.40;69.10;;;;;;5089719;28;20667;-52
2021/03/03 04:49:26;;;;;;;19.70;14.67;;;9.40;69.40;;;;;;5089928;28;21075;-51
2021/03/03 04:51:53;;;;;;;20.70;14.30;;;9.40;69.60;;;;;;5090202;28;20623;-51
2021/03/03 04:54:20;;;;;;;21.97;16.50;;;9.40;69.30;;;;;;5088973;28;20655;-52
2021/03/03 04:56:46;;;;;;;19.30;14.27;;;9.40;69.10;;;;;;5093104;28;20628;-52
2021/03/03 04:59:13;;;;;;;17.87;14.80;;;9.50;69.30;;;;;;5090255;28;20627;-52
2021/03/03 05:01:41;;;;;;;16.40;12.73;;;9.40;69.70;;;;;;5090037;28;20672;-52
2021/03/03 05:04:07;;;;;;;20.00;14.20;;;9.30;70.00;;;;;;5089560;28;20708;-52
2021/03/03 05:06:34;;;;;;;18.83;15.50;;;9.20;70.50;;;;;;5090389;28;20623;-52
2021/03/03 05:09:01;;;;;;;23.70;14.80;;;9.10;70.60;;;;;;5089302;28;20684;-52
2021/03/03 05:11:27;;;;;;;21.13;15.43;;;9.00;71.10;;;;;;5086419;28;21046;-52
2021/03/03 05:13:54;;;;;;;19.23;16.13;;;8.90;71.40;;;;;;5088849;28;20696;-52
2021/03/03 05:16:21;;;;;;;20.47;16.67;;;8.80;71.40;;;;;;5090114;28;20662;-52
2021/03/03 05:18:48;;;;;;;21.10;16.40;;;8.80;71.20;;;;;;5093317;28;20719;-52
2021/03/03 05:21:15;;;;;;;17.10;13.47;;;8.70;71.20;;;;;;5101380;28;20630;-52
2021/03/03 05:23:42;;;;;;;26.60;16.00;;;8.70;71.90;;;;;;5097782;28;20749;-51
2021/03/03 05:26:08;;;;;;;17.73;14.17;;;8.60;71.00;;;;;;5089571;28;20624;-52
2021/03/03 05:28:35;;;;;;;20.03;14.30;;;8.60;71.20;;;;;;5093334;28;21013;-52
2021/03/03 05:31:02;;;;;;;20.47;15.17;;;8.50;71.70;;;;;;5092700;28;20782;-52
2021/03/03 05:33:29;;;;;;;20.13;14.60;;;8.20;72.30;;;;;;5093096;28;20977;-52
2021/03/03 05:35:58;;;;;;;21.47;16.33;;;8.20;73.50;;;;;;5093224;28;20650;-52
2021/03/03 05:38:25;;;;;;;23.30;16.73;;;8.10;74.00;;;;;;5093268;28;20695;-51
2021/03/03 05:40:52;;;;;;;19.23;15.50;;;8.20;74.40;;;;;;5091531;28;20669;-51
2021/03/03 05:43:19;;;;;;;19.47;15.60;;;8.20;74.70;;;;;;5093361;28;21055;-51
2021/03/03 05:45:46;;;;;;;20.97;15.23;;;8.20;74.70;;;;;;5093510;28;20663;-52
2021/03/03 05:48:15;;;;;;;22.07;15.27;;;8.30;74.60;;;;;;5092093;28;20633;-52
2021/03/03 05:50:42;;;;;;;22.67;16.97;;;8.30;75.00;;;;;;5093106;28;20646;-52
2021/03/03 05:53:10;;;;;;;18.80;14.90;;;8.30;75.00;;;;;;5093076;28;20666;-51
2021/03/03 05:55:37;;;;;;;22.37;16.10;;;8.30;75.40;;;;;;5092565;28;20687;-52
2021/03/03 05:58:03;;;;;;;24.50;16.80;;;8.30;75.50;;;;;;5092444;28;20688;-52
2021/03/03 06:00:30;;;;;;;24.47;15.20;;;8.30;75.60;;;;;;5090765;28;20614;-52
2021/03/03 06:02:57;;;;;;;21.70;15.23;;;8.40;75.90;;;;;;5094913;28;20724;-52
2021/03/03 06:05:25;;;;;;;20.03;16.57;;;8.40;76.00;;;;;;5092774;28;21105;-52
2021/03/03 06:07:52;;;;;;;18.53;15.00;;;8.50;76.20;;;;;;5090961;28;20686;-52
2021/03/03 06:10:19;;;;;;;20.03;16.17;;;8.40;76.10;;;;;;5100754;28;21259;-52
2021/03/03 06:12:48;;;;;;;22.83;15.90;;;8.40;76.20;;;;;;5099363;28;21038;-52
2021/03/03 06:15:16;;;;;;;20.30;14.37;;;8.40;76.70;;;;;;5104148;28;20682;-52
2021/03/03 06:17:43;;;;;;;16.93;13.00;;;8.40;77.30;;;;;;5112162;28;21242;-52
2021/03/03 06:20:11;;;;;;;19.10;16.30;;;8.40;77.60;;;;;;5112614;28;20983;-52
2021/03/03 06:22:37;;;;;;;22.23;16.93;;;8.40;78.00;;;;;;5090521;28;20633;-52
2021/03/03 06:25:16;;;;;;;17.80;15.50;;;8.40;78.20;;;;;;5091938;28;20689;-50
2021/03/03 06:27:44;;;;;;;18.10;13.80;;;8.20;78.80;;;;;;5091726;28;21190;-52
2021/03/03 06:30:12;;;;;;;23.10;16.87;;;8.10;80.10;;;;;;5083030;28;21275;-50
2021/03/03 06:33:00;;;;;;;18.80;14.07;;;8.00;81.10;;;;;;5109596;28;20633;-51
2021/03/03 06:35:35;;;;;;;21.70;16.60;;;7.90;82.20;;;;;;5108795;28;20989;-52
2021/03/03 06:38:02;;;;;;;24.50;18.40;;;7.90;82.50;;;;;;5111845;28;20697;-52
2021/03/03 06:40:29;;;;;;;25.90;16.20;;;8.00;82.70;;;;;;5100038;28;20623;-50
2021/03/03 06:42:56;;;;;;;22.20;17.07;;;8.00;82.50;;;;;;5101639;28;20648;-51
2021/03/03 06:45:27;;;;;;;24.50;16.00;;;8.10;82.70;;;;;;5088554;28;21024;-50
2021/03/03 06:47:55;;;;;;;29.37;17.10;;;8.10;82.50;;;;;;5080530;28;20723;-52
2021/03/03 06:50:23;;;;;;;21.43;18.00;;;8.00;82.70;;;;;;5085180;28;20723;-51
2021/03/03 06:52:52;;;;;;;20.43;14.77;;;8.00;83.30;;;;;;5081045;28;20659;-51
2021/03/03 06:55:19;;;;;;;21.60;15.73;;;7.90;84.00;;;;;;5101003;28;20716;-51
2021/03/03 06:57:45;;;;;;;21.87;16.67;;;7.80;84.50;;;;;;5082418;28;20680;-53
2021/03/03 07:00:14;;;;;;;21.50;16.73;;;7.70;85.30;;;;;;5080581;28;21304;-53
2021/03/03 07:02:43;;;;;;;42.53;19.00;;;7.80;85.70;;;;;;5084117;28;20786;-53
2021/03/03 07:05:12;;;;;;;29.43;15.13;;;7.80;85.90;;;;;;5083699;28;21152;-54
2021/03/03 07:07:38;;;;;;;24.10;16.43;;;7.80;85.90;;;;;;5085516;28;21166;-52
2021/03/03 07:10:07;;;;;;;23.97;18.47;;;7.90;85.80;;;;;;5089496;28;20686;-53
2021/03/03 07:12:34;;;;;;;20.97;14.90;;;7.90;85.70;;;;;;5091937;28;20639;-52
2021/03/03 07:15:02;;;;;;;28.40;17.17;;;7.90;86.00;;;;;;5101924;28;20625;-53
2021/03/03 07:17:32;;;;;;;28.40;18.20;;;8.00;86.30;;;;;;5081390;28;20641;-53
2021/03/03 07:20:00;;;;;;;22.57;15.47;;;8.10;86.00;;;;;;5091383;28;21254;-53
2021/03/03 07:22:28;;;;;;;21.63;17.10;;;8.10;85.60;;;;;;5098627;28;20975;-52
2021/03/03 07:24:57;;;;;;;29.30;18.00;;;8.20;86.20;;;;;;5089646;28;20664;-53
2021/03/03 07:27:24;;;;;;;24.07;17.93;;;8.20;85.50;;;;;;5089767;28;21199;-52
2021/03/03 07:29:52;;;;;;;28.13;18.50;;;8.20;85.40;;;;;;5090310;28;21186;-54
2021/03/03 07:32:19;;;;;;;23.60;16.90;;;8.20;85.90;;;;;;5090119;28;20719;-52
2021/03/03 07:34:48;;;;;;;33.93;20.30;;;8.20;86.10;;;;;;5090281;28;20638;-52
2021/03/03 07:37:15;;;;;;;25.40;17.63;;;8.10;86.10;;;;;;5091049;28;20627;-52
2021/03/03 07:39:43;;;;;;;22.73;16.93;;;8.10;86.90;;;;;;5089859;28;20729;-53
2021/03/03 07:42:12;;;;;;;22.50;18.60;;;8.20;87.50;;;;;;5089922;28;20627;-53
2021/03/03 07:44:41;;;;;;;22.60;16.77;;;8.20;87.10;;;;;;5091077;28;20707;-54
2021/03/03 07:47:08;;;;;;;23.70;19.30;;;8.30;87.30;;;;;;5090911;28;20708;-53
2021/03/03 07:49:34;;;;;;;25.10;19.50;;;8.40;86.50;;;;;;5089851;28;20647;-54
2021/03/03 07:52:02;;;;;;;27.87;19.60;;;8.50;86.40;;;;;;5089382;28;20648;-54
2021/03/03 07:54:29;;;;;;;23.60;18.27;;;8.70;86.00;;;;;;5090446;28;21233;-54
2021/03/03 07:56:56;;;;;;;24.20;18.27;;;8.80;85.60;;;;;;5090881;28;20689;-52
2021/03/03 07:59:22;;;;;;;32.73;18.30;;;8.90;85.30;;;;;;5090123;28;20701;-52
2021/03/03 08:01:50;;;;;;;23.30;16.97;;;9.00;84.40;;;;;;5090285;28;20628;-52
2021/03/03 08:04:34;;;;;;;25.63;18.63;;;8.90;83.70;;;;;;5090023;28;21239;-53
2021/03/03 08:07:21;;;;;;;23.60;18.40;;;9.00;83.20;;;;;;5089891;28;20689;-55
2021/03/03 08:10:21;;;;;;;21.33;17.07;;;9.10;84.10;;;;;;5089852;28;20623;-53
2021/03/03 08:12:58;;;;;;;28.13;18.10;;;9.20;82.60;;;;;;5074620;28;20664;-55
2021/03/03 08:15:47;;;;;;;32.13;22.70;;;9.30;82.20;;;;;;5089244;28;20659;-54
2021/03/03 08:18:24;;;;;;;25.43;19.20;;;9.50;82.90;;;;;;5082504;28;20639;-52
2021/03/03 08:20:52;;;;;;;22.90;18.40;;;9.70;81.80;;;;;;5089816;28;21168;-53
2021/03/03 08:23:42;;;;;;;22.50;18.90;;;9.80;80.50;;;;;;5089133;28;20676;-53
2021/03/03 08:26:11;;;;;;;26.17;18.23;;;10.00;78.30;;;;;;5086230;28;21070;-49
2021/03/03 08:28:38;;;;;;;24.30;20.23;;;10.10;77.20;;;;;;5088618;28;20616;-51
2021/03/03 08:31:26;;;;;;;21.47;18.30;;;10.10;76.60;;;;;;5088624;28;20660;-51
2021/03/03 08:33:59;;;;;;;22.43;19.90;;;10.20;75.80;;;;;;5082550;28;20729;-54
2021/03/03 08:36:54;;;;;;;25.87;20.27;;;10.30;75.80;;;;;;5089289;28;20620;-50
2021/03/03 08:39:38;;;;;;;22.37;18.10;;;10.30;75.10;;;;;;5088587;28;20696;-50
2021/03/03 08:42:27;;;;;;;28.00;20.73;;;10.20;74.50;;;;;;5069111;28;20660;-50
2021/03/03 08:45:13;;;;;;;23.50;19.53;;;10.30;75.00;;;;;;5086319;28;20985;-50
2021/03/03 08:47:54;;;;;;;25.20;19.20;;;10.40;74.60;;;;;;5089224;28;20782;-50
2021/03/03 08:50:45;;;;;;;25.07;19.50;;;10.50;74.20;;;;;;5089399;28;20632;-51
2021/03/03 08:53:34;;;;;;;26.63;17.73;;;10.70;73.60;;;;;;5091435;28;21331;-51
2021/03/03 08:56:36;;;;;;;25.17;19.40;;;10.80;72.00;;;;;;5092133;28;20665;-51
2021/03/03 08:59:04;;;;;;;23.40;20.27;;;10.80;71.80;;;;;;5090665;28;20631;-52
2021/03/03 09:02:01;;;;;;;22.63;19.30;;;10.90;71.40;;;;;;5092715;28;20669;-51
2021/03/03 09:04:29;;;;;;;27.83;22.23;;;11.00;70.80;;;;;;5092690;28;20808;-51
2021/03/03 09:06:57;;;;;;;27.37;20.73;;;11.00;70.70;;;;;;5092449;28;20624;-52
2021/03/03 09:09:24;;;;;;;29.10;19.87;;;11.00;70.80;;;;;;5092634;28;20947;-51
2021/03/03 09:11:59;;;;;;;25.50;20.20;;;11.00;70.70;;;;;;5091456;28;20688;-51
2021/03/03 09:14:26;;;;;;;25.43;19.10;;;10.80;70.60;;;;;;5092411;28;20731;-51
2021/03/03 09:16:54;;;;;;;24.47;20.13;;;10.70;71.50;;;;;;5093020;28;20628;-51
2021/03/03 09:19:20;;;;;;;28.73;21.93;;;10.60;71.90;;;;;;5092060;28;20670;-51
2021/03/03 09:21:47;;;;;;;28.17;21.77;;;10.60;72.30;;;;;;5091965;28;21298;-50
2021/03/03 09:24:15;;;;;;;34.57;20.00;;;10.60;72.60;;;;;;5092489;28;20668;-50
2021/03/03 09:26:43;;;;;;;26.53;23.30;;;10.70;72.90;;;;;;5093096;28;20632;-50
2021/03/03 09:29:29;;;;;;;28.77;22.43;;;10.80;72.90;;;;;;5092295;28;20685;-49
2021/03/03 09:31:56;;;;;;;27.40;22.93;;;10.80;72.50;;;;;;5092420;28;20756;-50
2021/03/03 09:34:23;;;;;;;25.47;20.43;;;10.90;72.00;;;;;;5091665;28;20713;-50
2021/03/03 09:36:57;;;;;;;25.40;21.63;;;11.10;71.40;;;;;;5092965;28;20791;-50
2021/03/03 09:39:24;;;;;;;29.23;24.23;;;11.10;70.70;;;;;;5091881;28;21188;-50
2021/03/03 09:41:56;;;;;;;25.03;22.00;;;11.20;70.10;;;;;;5090956;28;21128;-49
2021/03/03 09:44:23;;;;;;;26.03;21.67;;;11.20;70.00;;;;;;5090543;28;20709;-49
2021/03/03 09:46:58;;;;;;;21.27;18.90;;;11.30;70.10;;;;;;5092421;28;20619;-49
2021/03/03 09:49:26;;;;;;;23.20;20.30;;;11.40;70.10;;;;;;5091392;28;20684;-48
2021/03/03 09:51:53;;;;;;;26.83;19.57;;;11.40;69.80;;;;;;5092187;28;20758;-49
2021/03/03 09:54:31;;;;;;;26.37;21.87;;;11.50;69.40;;;;;;5091144;28;20784;-50
2021/03/03 09:57:08;;;;;;;27.57;23.03;;;11.50;69.10;;;;;;5091963;28;20627;-50
2021/03/03 09:59:36;;;;;;;25.50;22.40;;;11.60;68.80;;;;;;5091083;28;20869;-50
2021/03/03 10:02:05;;;;;;;28.97;20.80;;;11.60;68.30;;;;;;5091911;28;20677;-51
2021/03/03 10:04:32;;;;;;;25.30;22.30;;;11.70;68.20;;;;;;5089783;28;21068;-51
2021/03/03 10:06:59;;;;;;;25.50;21.87;;;11.80;68.10;;;;;;5091271;28;20632;-51
2021/03/03 10:09:26;;;;;;;30.30;21.67;;;11.80;67.70;;;;;;5090565;28;20784;-51
2021/03/03 10:11:53;;;;;;;26.60;23.00;;;12.00;67.50;;;;;;5091153;28;20754;-51
2021/03/03 10:14:20;;;;;;;27.53;22.30;;;12.20;66.80;;;;;;5091454;28;20801;-51
2021/03/03 10:17:00;;;;;;;29.33;25.63;;;12.40;66.40;;;;;;5090913;28;20685;-51
2021/03/03 10:19:28;;;;;;;26.27;21.27;;;12.40;64.90;;;;;;5091264;28;20686;-50
2021/03/03 10:21:55;;;;;;;29.53;24.50;;;12.40;64.40;;;;;;5091644;28;20669;-52
2021/03/03 10:24:22;;;;;;;35.20;24.17;;;12.50;64.80;;;;;;5090844;28;20674;-50
2021/03/03 10:26:50;;;;;;;29.50;23.17;;;12.60;64.90;;;;;;5090717;28;20780;-51
2021/03/03 10:29:33;;;;;;;30.30;22.43;;;12.80;64.30;;;;;;5091155;28;20628;-51
2021/03/03 10:32:09;;;;;;;27.50;22.77;;;13.10;62.50;;;;;;5091498;28;20663;-51
2021/03/03 10:34:37;;;;;;;27.17;21.43;;;13.30;63.70;;;;;;5090744;28;20648;-52
2021/03/03 10:37:04;;;;;;;28.00;22.63;;;13.50;61.80;;;;;;5091748;28;21104;-52
2021/03/03 10:39:33;;;;;;;25.20;22.60;;;13.70;62.20;;;;;;5090882;28;20663;-50
2021/03/03 10:42:03;;;;;;;28.47;23.30;;;13.90;61.80;;;;;;5091798;28;20623;-51
2021/03/03 10:44:40;;;;;;;26.67;23.77;;;14.10;59.10;;;;;;5090505;28;21042;-51
2021/03/03 10:47:06;;;;;;;31.83;24.83;;;14.20;58.80;;;;;;5090717;28;20631;-51
2021/03/03 10:49:35;;;;;;;26.80;24.00;;;14.40;58.50;;;;;;5091097;28;20615;-51
2021/03/03 10:52:03;;;;;;;28.50;24.50;;;14.50;57.80;;;;;;5090462;28;20709;-51
2021/03/03 10:54:30;;;;;;;29.90;25.80;;;14.60;57.60;;;;;;5090991;28;20648;-51
2021/03/03 10:57:04;;;;;;;26.67;23.87;;;14.60;57.20;;;;;;5091682;28;20643;-51
2021/03/03 10:59:31;;;;;;;27.63;24.73;;;14.90;56.90;;;;;;5090107;28;20706;-51
2021/03/03 11:01:59;;;;;;;30.53;25.07;;;14.90;55.90;;;;;;5090488;28;20817;-51
2021/03/03 11:04:37;;;;;;;26.50;23.23;;;15.00;55.90;;;;;;5091375;28;20648;-49
2021/03/03 11:07:05;;;;;;;36.10;25.80;;;15.10;55.10;;;;;;5091284;28;20616;-49
2021/03/03 11:09:32;;;;;;;26.40;23.57;;;15.00;54.50;;;;;;5089839;28;20668;-51
2021/03/03 11:11:58;;;;;;;28.40;22.87;;;15.00;54.90;;;;;;5090114;28;20656;-51
2021/03/03 11:14:27;;;;;;;28.73;25.73;;;15.00;54.30;;;;;;5090535;28;20698;-50
2021/03/03 11:16:54;;;;;;;28.73;25.60;;;15.10;54.30;;;;;;5090270;28;21145;-52
2021/03/03 11:19:20;;;;;;;34.03;25.60;;;14.90;54.00;;;;;;5090668;28;20624;-51
2021/03/03 11:21:47;;;;;;;28.30;24.17;;;14.80;54.10;;;;;;5090098;28;21185;-51
2021/03/03 11:24:15;;;;;;;27.40;24.60;;;14.90;54.40;;;;;;5090239;28;21051;-51
2021/03/03 11:26:42;;;;;;;27.73;23.43;;;15.10;53.90;;;;;;5090301;28;20620;-53
2021/03/03 11:29:09;;;;;;;27.20;24.43;;;15.30;53.60;;;;;;5090320;28;20693;-52
2021/03/03 11:31:36;;;;;;;25.77;23.23;;;15.40;52.80;;;;;;5090725;28;21010;-52
2021/03/03 11:34:03;;;;;;;26.37;23.77;;;15.50;52.60;;;;;;5090207;28;20652;-53
2021/03/03 11:36:30;;;;;;;27.00;23.73;;;15.80;53.00;;;;;;5090008;28;20620;-53
2021/03/03 11:39:16;;;;;;;24.97;22.37;;;16.20;51.30;;;;;;5095233;28;20632;-51
2021/03/03 11:41:44;;;;;;;25.53;23.00;;;16.60;50.20;;;;;;5089383;28;20980;-50
2021/03/03 11:44:11;;;;;;;25.83;22.87;;;16.80;49.90;;;;;;5089728;28;20688;-53
2021/03/03 11:46:38;;;;;;;25.57;22.80;;;16.90;49.40;;;;;;5090039;28;20628;-51
2021/03/03 11:49:05;;;;;;;28.00;21.50;;;17.30;48.70;;;;;;5089240;28;20620;-52
2021/03/03 11:51:31;;;;;;;24.47;21.93;;;17.70;47.10;;;;;;5089380;28;20686;-51
2021/03/03 11:53:58;;;;;;;22.73;20.43;;;18.20;46.20;;;;;;5089442;28;20725;-52
2021/03/03 11:56:25;;;;;;;23.37;20.87;;;18.70;44.60;;;;;;5089758;28;20624;-52
2021/03/03 11:58:53;;;;;;;25.67;22.67;;;18.70;44.00;;;;;;5089106;28;20693;-52
2021/03/03 12:01:19;;;;;;;25.63;22.90;;;18.80;43.60;;;;;;5088764;28;20646;-52
2021/03/03 12:03:46;;;;;;;25.93;23.27;;;18.70;43.80;;;;;;5087053;28;21064;-52
2021/03/03 12:06:14;;;;;;;26.40;22.23;;;19.00;43.10;;;;;;5086264;28;20677;-52
2021/03/03 12:08:40;;;;;;;23.40;20.17;;;19.50;42.00;;;;;;5086354;28;20686;-53
2021/03/03 12:11:07;;;;;;;24.27;21.67;;;19.00;41.10;;;;;;5087591;28;20616;-51
2021/03/03 12:13:34;;;;;;;25.53;21.27;;;18.80;41.50;;;;;;5087455;28;20656;-52
2021/03/03 12:16:02;;;;;;;27.80;22.67;;;19.60;40.90;;;;;;5087818;28;20700;-52
2021/03/03 12:18:29;;;;;;;25.13;21.57;;;19.90;40.30;;;;;;5088369;28;21033;-51
2021/03/03 12:20:55;;;;;;;25.73;20.70;;;20.10;39.90;;;;;;5089711;28;20620;-52
2021/03/03 12:23:22;;;;;;;25.40;21.83;;;20.60;39.40;;;;;;5089062;28;20660;-52
2021/03/03 12:25:49;;;;;;;26.00;23.07;;;21.30;38.90;;;;;;5089728;28;20636;-53
2021/03/03 12:28:16;;;;;;;23.10;20.47;;;21.40;36.80;;;;;;5088566;28;20620;-52
2021/03/03 12:30:42;;;;;;;18.17;16.10;;;20.50;36.50;;;;;;5089753;28;20629;-52
2021/03/03 12:33:10;;;;;;;21.13;18.03;;;19.60;36.50;;;;;;5089622;28;20684;-53
2021/03/03 12:35:37;;;;;;;21.00;17.63;;;18.80;37.10;;;;;;5089476;28;20633;-52
2021/03/03 12:38:04;;;;;;;27.07;18.20;;;19.00;38.30;;;;;;5089501;28;20689;-51
2021/03/03 12:40:31;;;;;;;20.80;15.80;;;19.40;38.40;;;;;;5089694;28;20964;-53